Time;durP1;ratioP1;P1;durP2;ratioP2;P2;SDS_P1;SDS_P2;PMS_P1;PMS_P2;Temp;Humidity;BMP_temperature;BMP_pressure;BME280_temperature;BME280_humidity;BME280_pressure;Samples;Min_cycle;Max_cycle;Signal;HPM_P1;HPM_P2
2022/06/05 00:03:59;;;;;;;3.10;2.90;;;;;;;;;;8357017;28;20037;-61
2022/06/05 00:08:06;;;;;;;3.10;2.80;;;;;;;;;;8357232;28;20541;-61
2022/06/05 00:12:06;;;;;;;3.25;2.95;;;;;;;;;;8355621;28;20013;-61
2022/06/05 00:16:08;;;;;;;4.30;2.90;;;;;;;;;;8355628;28;20060;-61
2022/06/05 00:20:10;;;;;;;4.07;3.65;;;;;;;;;;8355242;28;20020;-61
2022/06/05 00:24:10;;;;;;;4.68;3.97;;;;;;;;;;8355852;28;20060;-61
2022/06/05 00:28:19;;;;;;;3.55;3.03;;;;;;;;;;8356687;28;20027;-61
2022/06/05 00:32:19;;;;;;;3.20;3.00;;;;;;;;;;8357159;28;20501;-61
2022/06/05 00:36:26;;;;;;;3.60;3.10;;;;;;;;;;8355943;28;20043;-61
2022/06/05 00:40:32;;;;;;;3.83;3.40;;;;;;;;;;8353607;28;20060;-62
2022/06/05 00:44:44;;;;;;;5.07;3.28;;;;;;;;;;8355383;28;20029;-61
2022/06/05 00:48:46;;;;;;;3.58;3.25;;;;;;;;;;8353758;28;20800;-61
2022/06/05 00:52:49;;;;;;;4.25;3.45;;;;;;;;;;8356172;28;20029;-61
2022/06/05 00:56:49;;;;;;;3.65;3.40;;;;;;;;;;8355471;28;20028;-62
2022/06/05 01:00:52;;;;;;;4.53;3.80;;;;;;;;;;8355255;28;20102;-61
2022/06/05 01:04:52;;;;;;;4.18;3.85;;;;;;;;;;8355355;28;20024;-62
2022/06/05 01:08:52;;;;;;;4.20;3.90;;;;;;;;;;8353757;28;20033;-61
2022/06/05 01:13:10;;;;;;;5.00;3.90;;;;;;;;;;8353672;28;20039;-67
2022/06/05 01:17:14;;;;;;;4.80;4.40;;;;;;;;;;8350845;28;20896;-61
2022/06/05 01:21:16;;;;;;;5.22;4.63;;;;;;;;;;8351300;28;20047;-61
2022/06/05 01:25:30;;;;;;;5.43;4.22;;;;;;;;;;8352010;28;20036;-62
2022/06/05 01:29:30;;;;;;;;;;;;;;;;;;8354080;28;20026;-61
2022/06/05 01:33:31;;;;;;;6.35;4.80;;;;;;;;;;8352181;28;20676;-61
2022/06/05 01:37:39;;;;;;;4.38;3.92;;;;;;;;;;8351112;28;20738;-62
2022/06/05 01:41:45;;;;;;;4.18;3.88;;;;;;;;;;8353523;28;20021;-61
2022/06/05 01:45:51;;;;;;;6.78;4.18;;;;;;;;;;8354013;28;20179;-61
2022/06/05 01:49:57;;;;;;;4.53;4.07;;;;;;;;;;8355019;28;20021;-62
2022/06/05 01:54:00;;;;;;;4.45;4.05;;;;;;;;;;8360286;28;20082;-61
2022/06/05 01:58:02;;;;;;;4.43;4.03;;;;;;;;;;8360784;28;20458;-61
2022/06/05 02:02:04;;;;;;;4.68;4.28;;;;;;;;;;8358306;28;20029;-61
2022/06/05 02:06:07;;;;;;;6.47;4.30;;;;;;;;;;8360699;28;20052;-61
2022/06/05 02:10:09;;;;;;;6.07;5.57;;;;;;;;;;8360190;28;20024;-61
2022/06/05 02:14:10;;;;;;;6.85;6.25;;;;;;;;;;8360838;28;20146;-61
2022/06/05 02:18:11;;;;;;;7.00;5.55;;;;;;;;;;8359369;28;20466;-61
2022/06/05 02:22:15;;;;;;;6.57;5.93;;;;;;;;;;8358924;28;20032;-62
2022/06/05 02:26:15;;;;;;;5.85;5.45;;;;;;;;;;8359468;28;20428;-62
2022/06/05 02:30:16;;;;;;;7.05;6.45;;;;;;;;;;8360372;28;20024;-60
2022/06/05 02:34:27;;;;;;;7.70;7.00;;;;;;;;;;8360024;28;20495;-61
2022/06/05 02:38:46;;;;;;;7.47;6.53;;;;;;;;;;8359725;28;20028;-61
2022/06/05 02:42:47;;;;;;;7.00;6.28;;;;;;;;;;8357546;28;20111;-62
2022/06/05 02:46:52;;;;;;;6.18;5.68;;;;;;;;;;8359842;28;20383;-61
2022/06/05 02:51:04;;;;;;;6.47;5.95;;;;;;;;;;8357426;28;20077;-61
2022/06/05 02:55:07;;;;;;;5.82;5.32;;;;;;;;;;8359218;28;20534;-61
2022/06/05 02:59:07;;;;;;;7.05;5.80;;;;;;;;;;8358591;28;20493;-61
2022/06/05 03:07:26;;;;;;;5.97;5.45;;;;;;;;;;8359862;28;20036;-61
2022/06/05 03:11:27;;;;;;;6.45;5.88;;;;;;;;;;8359801;28;20021;-61
2022/06/05 03:15:27;;;;;;;6.17;5.23;;;;;;;;;;8357995;28;20045;-61
2022/06/05 03:19:28;;;;;;;5.38;4.88;;;;;;;;;;8356191;28;20284;-62
2022/06/05 03:23:28;;;;;;;5.90;5.30;;;;;;;;;;8355731;28;20016;-61
2022/06/05 03:27:30;;;;;;;6.88;5.47;;;;;;;;;;8355786;28;20090;-61
2022/06/05 03:31:30;;;;;;;6.45;5.95;;;;;;;;;;8357511;28;20124;-61
2022/06/05 03:35:30;;;;;;;6.87;6.23;;;;;;;;;;8357435;28;20571;-61
2022/06/05 03:39:31;;;;;;;7.33;6.60;;;;;;;;;;8356751;28;20021;-61
2022/06/05 03:43:32;;;;;;;6.90;6.30;;;;;;;;;;8356139;28;20749;-61
2022/06/05 03:47:32;;;;;;;5.87;5.40;;;;;;;;;;8355917;28;20055;-68
2022/06/05 03:51:33;;;;;;;5.93;5.18;;;;;;;;;;8354867;28;20283;-61
2022/06/05 03:55:33;;;;;;;6.60;6.00;;;;;;;;;;8353274;28;20840;-62
2022/06/05 03:59:34;;;;;;;7.07;6.23;;;;;;;;;;8354900;28;20031;-61
2022/06/05 04:03:34;;;;;;;6.35;5.75;;;;;;;;;;8353126;28;20290;-60
2022/06/05 04:07:35;;;;;;;6.67;5.70;;;;;;;;;;8354258;28;21119;-60
2022/06/05 04:11:36;;;;;;;6.03;5.53;;;;;;;;;;8354229;28;20888;-61
2022/06/05 04:15:36;;;;;;;5.30;4.80;;;;;;;;;;8353592;28;20098;-62
2022/06/05 04:19:37;;;;;;;5.88;5.22;;;;;;;;;;8351906;28;20087;-61
2022/06/05 04:23:37;;;;;;;5.80;5.30;;;;;;;;;;8352907;28;20202;-61
2022/06/05 04:27:37;;;;;;;6.07;5.47;;;;;;;;;;8353790;28;20025;-61
2022/06/05 04:31:44;;;;;;;7.63;5.30;;;;;;;;;;8353217;28;20106;-61
2022/06/05 04:35:45;;;;;;;8.35;5.07;;;;;;;;;;8353056;28;20805;-61
2022/06/05 04:39:45;;;;;;;6.32;5.72;;;;;;;;;;8353155;28;20025;-61
2022/06/05 04:43:46;;;;;;;6.13;5.53;;;;;;;;;;8353593;28;20059;-61
2022/06/05 04:47:46;;;;;;;5.57;5.05;;;;;;;;;;8353331;28;20874;-62
2022/06/05 04:51:46;;;;;;;7.88;5.07;;;;;;;;;;8351522;28;20021;-61
2022/06/05 04:55:46;;;;;;;6.07;5.47;;;;;;;;;;8351938;28;20025;-61
2022/06/05 04:59:46;;;;;;;8.25;5.38;;;;;;;;;;8352264;28;20047;-61
2022/06/05 05:03:47;;;;;;;6.07;5.53;;;;;;;;;;8353047;28;20037;-62
2022/06/05 05:07:47;;;;;;;5.50;5.00;;;;;;;;;;8350801;28;20816;-61
2022/06/05 05:11:48;;;;;;;6.65;5.95;;;;;;;;;;8352020;28;20017;-62
2022/06/05 05:15:51;;;;;;;10.17;5.90;;;;;;;;;;8351358;28;20058;-61
2022/06/05 05:19:51;;;;;;;7.85;5.00;;;;;;;;;;8352413;28;20166;-61
2022/06/05 05:23:51;;;;;;;6.38;5.72;;;;;;;;;;8348029;28;20712;-61
2022/06/05 05:27:51;;;;;;;6.67;6.00;;;;;;;;;;8350052;28;20381;-61
2022/06/05 05:31:52;;;;;;;5.95;5.47;;;;;;;;;;8349506;28;20264;-61
2022/06/05 05:35:54;;;;;;;7.20;6.00;;;;;;;;;;8351910;28;20028;-62
2022/06/05 05:44:13;;;;;;;6.57;5.97;;;;;;;;;;8351512;28;20472;-61
2022/06/05 05:48:13;;;;;;;5.90;5.40;;;;;;;;;;8352842;28;20040;-61
2022/06/05 05:52:13;;;;;;;6.33;5.70;;;;;;;;;;8352426;28;20031;-61
2022/06/05 05:56:13;;;;;;;6.13;5.63;;;;;;;;;;8354261;28;20021;-61
2022/06/05 06:00:16;;;;;;;6.97;6.13;;;;;;;;;;8352063;28;20118;-61
2022/06/05 06:04:16;;;;;;;7.28;6.55;;;;;;;;;;8351358;28;20863;-61
2022/06/05 06:08:16;;;;;;;7.57;6.87;;;;;;;;;;8351797;28;20506;-61
2022/06/05 06:12:16;;;;;;;7.40;6.70;;;;;;;;;;8349946;28;21444;-61
2022/06/05 06:16:17;;;;;;;8.55;7.05;;;;;;;;;;8350396;28;20945;-61
2022/06/05 06:20:17;;;;;;;9.20;7.72;;;;;;;;;;8351624;28;20052;-62
2022/06/05 06:24:17;;;;;;;8.88;8.13;;;;;;;;;;8351059;28;20029;-61
2022/06/05 06:28:18;;;;;;;7.82;7.22;;;;;;;;;;8351460;28;20060;-62
2022/06/05 06:32:18;;;;;;;8.15;7.30;;;;;;;;;;8350733;28;20110;-61
2022/06/05 06:36:19;;;;;;;8.55;7.70;;;;;;;;;;8352393;28;20074;-62
2022/06/05 06:40:20;;;;;;;9.20;8.40;;;;;;;;;;8358643;28;20964;-62
2022/06/05 06:44:21;;;;;;;8.57;7.78;;;;;;;;;;8357081;28;20029;-62
2022/06/05 06:48:21;;;;;;;8.23;7.43;;;;;;;;;;8355854;28;20612;-62
2022/06/05 06:52:21;;;;;;;9.53;8.63;;;;;;;;;;8358104;28;20468;-62
2022/06/05 06:56:23;;;;;;;8.90;8.05;;;;;;;;;;8357078;28;20699;-62
2022/06/05 07:00:23;;;;;;;9.77;8.57;;;;;;;;;;8357898;28;20033;-62
2022/06/05 07:04:24;;;;;;;10.60;8.50;;;;;;;;;;8359584;28;20035;-62
2022/06/05 07:08:24;;;;;;;8.53;7.83;;;;;;;;;;8357714;28;20868;-62
2022/06/05 07:12:24;;;;;;;9.43;8.55;;;;;;;;;;8357032;28;20756;-62
2022/06/05 07:16:24;;;;;;;7.90;7.30;;;;;;;;;;8359008;28;20439;-62
2022/06/05 07:20:24;;;;;;;8.15;7.35;;;;;;;;;;8356422;28;20028;-62
2022/06/05 07:24:25;;;;;;;8.88;8.02;;;;;;;;;;8357832;28;20128;-62
2022/06/05 07:28:25;;;;;;;8.48;7.68;;;;;;;;;;8357806;28;20024;-63
2022/06/05 07:32:25;;;;;;;10.13;9.00;;;;;;;;;;8355852;28;20157;-62
2022/06/05 07:36:26;;;;;;;9.75;8.90;;;;;;;;;;8359534;28;20353;-61
2022/06/05 07:40:27;;;;;;;13.57;9.80;;;;;;;;;;8356471;28;20031;-62
2022/06/05 07:44:27;;;;;;;11.85;10.70;;;;;;;;;;8358175;28;20028;-62
2022/06/05 07:48:27;;;;;;;10.43;9.43;;;;;;;;;;8354681;28;20036;-62
2022/06/05 07:56:46;;;;;;;8.00;7.30;;;;;;;;;;8355721;28;20628;-61
2022/06/05 08:00:46;;;;;;;10.10;9.10;;;;;;;;;;8349775;28;20064;-61
2022/06/05 08:04:48;;;;;;;11.18;10.20;;;;;;;;;;8348820;28;20322;-61
2022/06/05 08:08:48;;;;;;;10.85;9.88;;;;;;;;;;8349646;28;20082;-61
2022/06/05 08:12:49;;;;;;;15.97;10.63;;;;;;;;;;8349657;28;20032;-61
2022/06/05 08:16:50;;;;;;;9.98;9.18;;;;;;;;;;8350100;28;20056;-61
2022/06/05 08:20:50;;;;;;;9.77;8.87;;;;;;;;;;8354821;28;20040;-61
2022/06/05 08:24:52;;;;;;;9.97;9.07;;;;;;;;;;8347611;28;20040;-61
2022/06/05 08:28:52;;;;;;;9.95;9.05;;;;;;;;;;8353479;28;20285;-61
2022/06/05 08:32:53;;;;;;;9.63;8.73;;;;;;;;;;8351326;28;20040;-62
2022/06/05 08:41:27;;;;;;;8.75;7.95;;;;;;;;;;8353974;28;20086;-61
2022/06/05 08:45:41;;;;;;;13.25;11.30;;;;;;;;;;8352599;28;20424;-61
2022/06/05 08:49:46;;;;;;;9.10;8.23;;;;;;;;;;8351591;28;20524;-61
2022/06/05 08:53:53;;;;;;;9.25;8.27;;;;;;;;;;8353232;28;20016;-61
2022/06/05 08:58:04;;;;;;;9.35;8.50;;;;;;;;;;8352185;28;20028;-61
2022/06/05 09:02:34;;;;;;;8.68;7.97;;;;;;;;;;8350787;28;20452;-61
2022/06/05 09:06:43;;;;;;;8.50;7.72;;;;;;;;;;8335827;28;20037;-61
2022/06/05 09:10:47;;;;;;;8.98;8.20;;;;;;;;;;8350716;28;20024;-61
2022/06/05 09:15:05;;;;;;;9.40;8.50;;;;;;;;;;8351241;28;20032;-61
2022/06/05 09:19:05;;;;;;;7.78;7.18;;;;;;;;;;8353119;28;20033;-61
2022/06/05 09:23:09;;;;;;;7.63;6.93;;;;;;;;;;8349807;28;20024;-61
2022/06/05 09:27:15;;;;;;;8.57;7.65;;;;;;;;;;8351650;28;20719;-61
2022/06/05 09:31:19;;;;;;;7.93;7.18;;;;;;;;;;8348135;28;20036;-62
2022/06/05 09:35:22;;;;;;;9.13;8.20;;;;;;;;;;8352840;28;20028;-61
2022/06/05 09:39:22;;;;;;;;;;;;;;;;;;8351259;28;20036;-61
2022/06/05 09:43:35;;;;;;;8.02;7.32;;;;;;;;;;8351624;28;19928;-62
2022/06/05 09:47:58;;;;;;;8.32;7.38;;;;;;;;;;8351847;28;20039;-61
2022/06/05 09:52:18;;;;;;;8.45;7.65;;;;;;;;;;8349973;28;20033;-61
2022/06/05 09:56:18;;;;;;;14.73;11.88;;;;;;;;;;8350289;28;20046;-61
2022/06/05 10:00:32;;;;;;;11.50;8.77;;;;;;;;;;8350034;28;20147;-61
2022/06/05 10:04:33;;;;;;;10.10;9.05;;;;;;;;;;8350489;28;20474;-61
2022/06/05 10:08:38;;;;;;;10.38;9.48;;;;;;;;;;8349796;28;20021;-61
2022/06/05 10:12:50;;;;;;;10.05;9.15;;;;;;;;;;8355189;28;20034;-61
2022/06/05 10:16:57;;;;;;;9.70;8.80;;;;;;;;;;8356046;28;20072;-62
2022/06/05 10:21:02;;;;;;;8.65;7.75;;;;;;;;;;8355282;28;20032;-61
2022/06/05 10:25:12;;;;;;;11.20;8.63;;;;;;;;;;8353442;28;20033;-61
2022/06/05 10:29:18;;;;;;;7.90;7.15;;;;;;;;;;8352694;28;20021;-63
2022/06/05 10:33:27;;;;;;;7.63;6.93;;;;;;;;;;8353305;28;20573;-61
2022/06/05 10:37:29;;;;;;;7.55;6.85;;;;;;;;;;8353823;28;20824;-61
2022/06/05 10:41:29;;;;;;;7.93;7.18;;;;;;;;;;8355922;28;20294;-61
2022/06/05 10:45:49;;;;;;;8.20;7.50;;;;;;;;;;8354083;28;20040;-61
2022/06/05 10:49:58;;;;;;;9.57;8.68;;;;;;;;;;8354556;28;20038;-61
2022/06/05 10:54:05;;;;;;;9.55;8.68;;;;;;;;;;8354726;28;20430;-63
2022/06/05 10:58:05;;;;;;;9.25;8.35;;;;;;;;;;8354543;28;20052;-61
2022/06/05 11:02:35;;;;;;;8.65;7.85;;;;;;;;;;8352088;28;20094;-61
2022/06/05 11:06:35;;;;;;;8.57;7.68;;;;;;;;;;8336324;28;20040;-61
2022/06/05 11:14:59;;;;;;;;;;;;;;;;;;8351226;28;20531;-61
2022/06/05 11:19:05;;;;;;;10.05;9.15;;;;;;;;;;8351657;28;19916;-62
2022/06/05 11:23:09;;;;;;;10.90;9.05;;;;;;;;;;8349695;28;20468;-61
2022/06/05 11:27:13;;;;;;;10.20;8.30;;;;;;;;;;8354685;28;20047;-61
2022/06/05 11:31:32;;;;;;;8.95;8.10;;;;;;;;;;8351361;28;20322;-61
2022/06/05 11:35:33;;;;;;;9.40;8.18;;;;;;;;;;8351965;28;20020;-61
2022/06/05 11:39:46;;;;;;;9.48;8.57;;;;;;;;;;8351845;28;20858;-61
2022/06/05 11:43:50;;;;;;;10.30;9.30;;;;;;;;;;8352633;28;20028;-61
2022/06/05 11:48:10;;;;;;;8.95;8.13;;;;;;;;;;8353235;28;20068;-61
2022/06/05 11:52:15;;;;;;;9.68;8.20;;;;;;;;;;8349473;28;20031;-61
2022/06/05 11:56:34;;;;;;;10.68;9.02;;;;;;;;;;8353143;28;20123;-61
2022/06/05 12:00:41;;;;;;;10.05;9.15;;;;;;;;;;8351079;28;20056;-61
2022/06/05 12:05:08;;;;;;;9.77;8.70;;;;;;;;;;8350696;28;20067;-61
2022/06/05 12:09:13;;;;;;;12.43;9.18;;;;;;;;;;8318456;28;20274;-62
2022/06/05 12:13:31;;;;;;;10.68;9.77;;;;;;;;;;8350381;28;20025;-61
2022/06/05 12:17:38;;;;;;;9.32;8.38;;;;;;;;;;8353131;28;20021;-61
2022/06/05 12:21:38;;;;;;;9.70;8.75;;;;;;;;;;8348022;28;20055;-61
2022/06/05 12:25:44;;;;;;;9.80;8.43;;;;;;;;;;8353025;28;20032;-61
2022/06/05 12:29:58;;;;;;;9.07;8.18;;;;;;;;;;8350354;28;20024;-61
2022/06/05 12:34:11;;;;;;;8.80;8.00;;;;;;;;;;8349970;28;20197;-61
2022/06/05 12:38:19;;;;;;;12.82;11.50;;;;;;;;;;8349403;28;20052;-61
2022/06/05 12:42:22;;;;;;;13.75;11.32;;;;;;;;;;8351571;28;20024;-62
2022/06/05 12:46:45;;;;;;;16.15;9.70;;;;;;;;;;8348849;28;20041;-62
2022/06/05 12:51:04;;;;;;;12.57;10.40;;;;;;;;;;8344624;28;20391;-62
2022/06/05 12:55:09;;;;;;;10.25;9.25;;;;;;;;;;8348168;28;20053;-62
2022/06/05 12:59:18;;;;;;;10.43;9.07;;;;;;;;;;8348987;28;20020;-62
2022/06/05 13:03:21;;;;;;;10.55;9.55;;;;;;;;;;8349367;28;20202;-61
2022/06/05 13:07:21;;;;;;;;;;;;;;;;;;8351523;28;20026;-61
2022/06/05 13:11:31;;;;;;;10.35;9.13;;;;;;;;;;8350637;28;19970;-61
2022/06/05 13:15:33;;;;;;;9.38;8.25;;;;;;;;;;8350249;28;20508;-61
2022/06/05 13:19:46;;;;;;;7.57;6.90;;;;;;;;;;8350794;28;20020;-61
2022/06/05 13:24:05;;;;;;;7.70;6.93;;;;;;;;;;8350683;28;20043;-61
2022/06/05 13:28:19;;;;;;;10.18;6.57;;;;;;;;;;8346840;28;20013;-62
2022/06/05 13:32:38;;;;;;;7.20;6.55;;;;;;;;;;8350373;28;20055;-62
2022/06/05 13:36:43;;;;;;;10.18;6.22;;;;;;;;;;8349359;28;20109;-62
2022/06/05 13:40:51;;;;;;;8.45;6.97;;;;;;;;;;8349639;28;20181;-62
2022/06/05 13:44:54;;;;;;;4.55;3.90;;;;;;;;;;8348893;28;20156;-62
2022/06/05 13:48:54;;;;;;;5.43;3.63;;;;;;;;;;8347924;28;20072;-61
2022/06/05 13:53:21;;;;;;;7.68;3.30;;;;;;;;;;8349137;28;20027;-61
2022/06/05 13:57:30;;;;;;;2.60;2.00;;;;;;;;;;8347131;28;20040;-62
2022/06/05 14:01:31;;;;;;;2.03;1.70;;;;;;;;;;8347763;28;20048;-62
2022/06/05 14:05:36;;;;;;;1.58;1.48;;;;;;;;;;8348867;28;20028;-61
2022/06/05 14:09:42;;;;;;;2.05;1.30;;;;;;;;;;8352109;28;20020;-62
2022/06/05 14:13:47;;;;;;;5.60;1.30;;;;;;;;;;8349558;28;20555;-62
2022/06/05 14:17:47;;;;;;;1.50;1.20;;;;;;;;;;8347148;28;20041;-62
2022/06/05 14:21:53;;;;;;;1.73;1.17;;;;;;;;;;8349545;28;20040;-62
2022/06/05 14:25:56;;;;;;;1.10;1.00;;;;;;;;;;8351695;28;20029;-62
2022/06/05 14:29:58;;;;;;;1.30;1.20;;;;;;;;;;8346223;28;20090;-62
2022/06/05 14:34:01;;;;;;;1.13;1.02;;;;;;;;;;8347273;28;20041;-62
2022/06/05 14:38:17;;;;;;;2.33;0.90;;;;;;;;;;8349565;28;20028;-63
2022/06/05 14:42:25;;;;;;;0.95;0.90;;;;;;;;;;8347970;28;20031;-62
2022/06/05 14:46:26;;;;;;;2.47;0.73;;;;;;;;;;8350452;28;20039;-62
2022/06/05 14:50:31;;;;;;;1.75;1.02;;;;;;;;;;8347633;28;20023;-62
2022/06/05 14:59:17;;;;;;;3.92;1.00;;;;;;;;;;8349305;28;20125;-61
2022/06/05 15:03:21;;;;;;;2.90;1.10;;;;;;;;;;8354516;28;20037;-62
2022/06/05 15:07:27;;;;;;;4.30;1.02;;;;;;;;;;8354546;28;20047;-62
2022/06/05 15:11:34;;;;;;;3.20;1.02;;;;;;;;;;8351663;28;20462;-61
2022/06/05 15:15:35;;;;;;;5.07;1.10;;;;;;;;;;8351229;28;20029;-62
2022/06/05 15:19:36;;;;;;;2.90;1.10;;;;;;;;;;8348956;28;20028;-62
2022/06/05 15:23:44;;;;;;;2.35;1.20;;;;;;;;;;8352000;28;20109;-62
2022/06/05 15:28:02;;;;;;;7.25;1.27;;;;;;;;;;8354821;28;20023;-62
2022/06/05 15:32:32;;;;;;;3.85;1.23;;;;;;;;;;8353006;28;20040;-62
2022/06/05 15:36:35;;;;;;;3.83;1.20;;;;;;;;;;8301861;28;20456;-62
2022/06/05 15:40:44;;;;;;;2.92;1.35;;;;;;;;;;8353142;28;20060;-62
2022/06/05 15:45:07;;;;;;;2.47;1.10;;;;;;;;;;8352523;28;20034;-61
2022/06/05 15:49:26;;;;;;;1.35;1.00;;;;;;;;;;8352224;28;20557;-66
2022/06/05 15:53:26;;;;;;;1.10;1.00;;;;;;;;;;8352895;28;20024;-62
2022/06/05 16:02:00;;;;;;;0.85;0.75;;;;;;;;;;8354008;28;20352;-63
2022/06/05 16:06:01;;;;;;;2.95;0.80;;;;;;;;;;8353046;28;20357;-62
2022/06/05 16:10:05;;;;;;;1.30;1.00;;;;;;;;;;8351738;28;20546;-62
2022/06/05 16:14:05;;;;;;;2.65;0.93;;;;;;;;;;8353453;28;20032;-62
2022/06/05 16:18:09;;;;;;;0.80;0.80;;;;;;;;;;8350915;28;20817;-62
2022/06/05 16:22:14;;;;;;;1.17;0.75;;;;;;;;;;8351770;28;20535;-63
2022/06/05 16:26:19;;;;;;;4.32;1.00;;;;;;;;;;8350337;28;20035;-62
2022/06/05 16:30:28;;;;;;;2.03;1.00;;;;;;;;;;8352218;28;20086;-62
2022/06/05 16:34:32;;;;;;;2.70;0.80;;;;;;;;;;8351303;28;20039;-62
2022/06/05 16:38:32;;;;;;;0.90;0.70;;;;;;;;;;8351120;28;21058;-62
2022/06/05 16:42:34;;;;;;;1.50;0.75;;;;;;;;;;8350738;28;20283;-62
2022/06/05 16:46:36;;;;;;;0.95;0.80;;;;;;;;;;8348213;28;20401;-61
2022/06/05 16:50:49;;;;;;;0.73;0.70;;;;;;;;;;8351725;28;20024;-61
2022/06/05 16:55:08;;;;;;;3.22;0.88;;;;;;;;;;8351949;28;20108;-62
2022/06/05 16:59:24;;;;;;;1.98;1.30;;;;;;;;;;8348862;28;20029;-61
2022/06/05 17:03:26;;;;;;;1.10;1.00;;;;;;;;;;8347504;28;20114;-61
2022/06/05 17:07:28;;;;;;;3.30;1.00;;;;;;;;;;8347193;28;20021;-62
2022/06/05 17:11:33;;;;;;;4.60;1.23;;;;;;;;;;8347162;28;20029;-61
2022/06/05 17:15:40;;;;;;;0.93;0.70;;;;;;;;;;8350832;28;20036;-61
2022/06/05 17:19:42;;;;;;;1.25;0.80;;;;;;;;;;8349277;28;20700;-62
2022/06/05 17:24:01;;;;;;;4.53;0.93;;;;;;;;;;8347089;28;20028;-62
2022/06/05 17:28:10;;;;;;;3.20;0.80;;;;;;;;;;8351245;28;20535;-62
2022/06/05 17:32:17;;;;;;;1.70;0.75;;;;;;;;;;8350507;28;20038;-63
2022/06/05 17:36:36;;;;;;;1.45;0.75;;;;;;;;;;8349449;28;20470;-62
2022/06/05 17:40:44;;;;;;;1.80;0.80;;;;;;;;;;8349203;28;20103;-63
2022/06/05 17:44:57;;;;;;;4.72;0.80;;;;;;;;;;8351146;28;20021;-62
2022/06/05 17:49:08;;;;;;;2.03;0.70;;;;;;;;;;8348303;28;20037;-62
2022/06/05 17:53:20;;;;;;;1.08;0.68;;;;;;;;;;8350591;28;20037;-62
2022/06/05 17:57:24;;;;;;;1.60;0.90;;;;;;;;;;8348165;28;20381;-62
2022/06/05 18:01:26;;;;;;;0.75;0.63;;;;;;;;;;8344182;28;20052;-61
2022/06/05 18:05:32;;;;;;;6.28;0.90;;;;;;;;;;8350841;28;20492;-61
2022/06/05 18:09:32;;;;;;;2.70;0.77;;;;;;;;;;8347392;28;20059;-61
2022/06/05 18:13:42;;;;;;;0.83;0.80;;;;;;;;;;8350535;28;20032;-61
2022/06/05 18:17:42;;;;;;;2.20;0.90;;;;;;;;;;8348159;28;20318;-62
2022/06/05 18:21:42;;;;;;;0.93;0.80;;;;;;;;;;8347994;28;20033;-61
2022/06/05 18:25:42;;;;;;;3.20;0.80;;;;;;;;;;8349271;28;20032;-62
2022/06/05 18:29:49;;;;;;;2.83;1.00;;;;;;;;;;8348843;28;20028;-61
2022/06/05 18:33:49;;;;;;;1.25;0.90;;;;;;;;;;8350741;28;20028;-62
2022/06/05 18:38:17;;;;;;;2.60;0.82;;;;;;;;;;8353954;28;20031;-61
2022/06/05 18:42:36;;;;;;;1.20;0.90;;;;;;;;;;8358286;28;20491;-61
2022/06/05 18:46:37;;;;;;;1.88;1.00;;;;;;;;;;8354603;28;20045;-62
2022/06/05 18:50:39;;;;;;;5.45;1.00;;;;;;;;;;8356175;28;20047;-62
2022/06/05 18:54:42;;;;;;;2.47;0.93;;;;;;;;;;8353005;28;20360;-61
2022/06/05 18:58:42;;;;;;;1.17;1.00;;;;;;;;;;8355484;28;21060;-61
2022/06/05 19:02:44;;;;;;;3.88;0.90;;;;;;;;;;8352801;28;20032;-61
2022/06/05 19:06:57;;;;;;;5.78;1.00;;;;;;;;;;8354537;28;20017;-61
2022/06/05 19:11:01;;;;;;;2.75;0.95;;;;;;;;;;8353616;28;20048;-61
2022/06/05 19:15:08;;;;;;;3.63;1.00;;;;;;;;;;8353474;28;20025;-60
2022/06/05 19:19:17;;;;;;;2.33;1.08;;;;;;;;;;8355294;28;20036;-61
2022/06/05 19:23:21;;;;;;;2.85;0.80;;;;;;;;;;8352015;28;20029;-61
2022/06/05 19:27:26;;;;;;;3.70;1.30;;;;;;;;;;8355558;28;20135;-65
2022/06/05 19:31:29;;;;;;;3.33;1.38;;;;;;;;;;8349721;28;20472;-61
2022/06/05 19:35:33;;;;;;;4.10;1.38;;;;;;;;;;8351319;28;20028;-61
2022/06/05 19:40:06;;;;;;;1.30;1.20;;;;;;;;;;8351342;28;20122;-61
2022/06/05 19:44:06;;;;;;;2.15;1.40;;;;;;;;;;8326272;28;20033;-60
2022/06/05 19:48:12;;;;;;;1.70;1.17;;;;;;;;;;8353792;28;20029;-61
2022/06/05 19:52:16;;;;;;;3.30;1.42;;;;;;;;;;8351303;28;20020;-61
2022/06/05 19:56:33;;;;;;;2.38;1.20;;;;;;;;;;8352071;28;20672;-60
2022/06/05 20:00:34;;;;;;;1.30;1.20;;;;;;;;;;8349720;28;20037;-61
2022/06/05 20:04:45;;;;;;;1.77;1.40;;;;;;;;;;8352826;28;20523;-61
2022/06/05 20:08:46;;;;;;;2.05;1.33;;;;;;;;;;8353254;28;20568;-61
2022/06/05 20:12:52;;;;;;;1.58;1.30;;;;;;;;;;8352729;28;20119;-61
2022/06/05 20:17:09;;;;;;;2.58;1.40;;;;;;;;;;8351033;28;20354;-61
2022/06/05 20:21:21;;;;;;;2.05;1.23;;;;;;;;;;8352365;28;20060;-61
2022/06/05 20:25:28;;;;;;;1.85;1.50;;;;;;;;;;8352673;28;20024;-61
2022/06/05 20:29:33;;;;;;;1.50;1.40;;;;;;;;;;8351833;28;20013;-61
2022/06/05 20:33:38;;;;;;;3.38;1.60;;;;;;;;;;8351064;28;20032;-61
2022/06/05 20:37:38;;;;;;;3.08;1.90;;;;;;;;;;8352833;28;20127;-61
2022/06/05 20:41:40;;;;;;;2.28;1.80;;;;;;;;;;8350648;28;20091;-61
2022/06/05 20:45:42;;;;;;;1.65;1.55;;;;;;;;;;8350574;28;20039;-61
2022/06/05 20:49:52;;;;;;;1.60;1.50;;;;;;;;;;8349453;28;20026;-61
2022/06/05 20:53:54;;;;;;;2.28;1.52;;;;;;;;;;8348443;28;20027;-61
2022/06/05 20:58:01;;;;;;;4.07;1.80;;;;;;;;;;8348660;28;20052;-60
2022/06/05 21:02:04;;;;;;;2.50;1.65;;;;;;;;;;8350135;28;20079;-61
2022/06/05 21:16:55;;;;;;;2.38;1.50;;;;;;;;;;8352314;28;20278;-61
2022/06/05 21:19:03;;;;;;;2.53;1.80;;;;;;;;;;8351202;28;20129;-61
2022/06/05 21:23:06;;;;;;;2.47;1.90;;;;;;;;;;8348646;28;20028;-61
2022/06/05 21:27:16;;;;;;;2.05;1.88;;;;;;;;;;8349144;28;20903;-61
2022/06/05 21:31:21;;;;;;;4.30;1.77;;;;;;;;;;8350507;28;20068;-61
2022/06/05 21:35:27;;;;;;;2.03;1.52;;;;;;;;;;8351197;28;20132;-61
2022/06/05 21:39:29;;;;;;;3.65;1.73;;;;;;;;;;8349093;28;20028;-61
2022/06/05 21:43:30;;;;;;;6.20;1.90;;;;;;;;;;8348007;28;20017;-61
2022/06/05 21:47:33;;;;;;;1.70;1.60;;;;;;;;;;8349336;28;20033;-61
2022/06/05 21:51:34;;;;;;;2.33;1.95;;;;;;;;;;8348065;28;20023;-61
2022/06/05 21:55:34;;;;;;;2.72;1.70;;;;;;;;;;8349977;28;20135;-61
2022/06/05 21:59:35;;;;;;;2.90;1.98;;;;;;;;;;8348907;28;20027;-61
2022/06/05 22:03:38;;;;;;;3.63;2.00;;;;;;;;;;8345808;28;20044;-61
2022/06/05 22:07:38;;;;;;;1.83;1.73;;;;;;;;;;8352948;28;20020;-61
2022/06/05 22:11:38;;;;;;;2.35;2.00;;;;;;;;;;8353316;28;20020;-61
2022/06/05 22:15:39;;;;;;;3.70;2.58;;;;;;;;;;8357368;28;20330;-61
2022/06/05 22:19:40;;;;;;;3.85;3.33;;;;;;;;;;8354945;28;20562;-61
2022/06/05 22:23:40;;;;;;;3.33;2.78;;;;;;;;;;8354260;28;20029;-62
2022/06/05 22:27:41;;;;;;;3.45;2.78;;;;;;;;;;8356506;28;20028;-61
2022/06/05 22:31:42;;;;;;;3.97;2.78;;;;;;;;;;8353679;28;20039;-61
2022/06/05 22:35:42;;;;;;;3.67;2.90;;;;;;;;;;8355133;28;20025;-61
2022/06/05 22:39:42;;;;;;;5.25;3.60;;;;;;;;;;8356276;28;20500;-62
2022/06/05 22:43:42;;;;;;;3.60;3.03;;;;;;;;;;8351332;28;20041;-61
2022/06/05 22:47:43;;;;;;;5.23;3.97;;;;;;;;;;8354449;28;20031;-61
2022/06/05 22:51:43;;;;;;;5.38;4.03;;;;;;;;;;8355283;28;20016;-61
2022/06/05 22:55:43;;;;;;;4.72;4.03;;;;;;;;;;8356725;28;20021;-61
2022/06/05 22:59:43;;;;;;;4.28;3.88;;;;;;;;;;8355667;28;20524;-61
2022/06/05 23:03:44;;;;;;;6.32;4.00;;;;;;;;;;8353024;28;20131;-61
2022/06/05 23:07:44;;;;;;;8.53;4.60;;;;;;;;;;8355210;28;20057;-61
2022/06/05 23:11:45;;;;;;;5.38;4.20;;;;;;;;;;8354558;28;20259;-62
2022/06/05 23:15:45;;;;;;;5.57;4.50;;;;;;;;;;8353546;28;20040;-61
2022/06/05 23:19:46;;;;;;;5.53;4.25;;;;;;;;;;8354697;28;20063;-61
2022/06/05 23:23:46;;;;;;;4.85;4.32;;;;;;;;;;8351442;28;20582;-61
2022/06/05 23:27:46;;;;;;;5.83;4.27;;;;;;;;;;8355230;28;20025;-61
2022/06/05 23:31:47;;;;;;;4.80;4.10;;;;;;;;;;8352648;28;20025;-60
2022/06/05 23:35:47;;;;;;;6.53;3.97;;;;;;;;;;8353425;28;20971;-61
2022/06/05 23:39:47;;;;;;;4.45;4.03;;;;;;;;;;8352675;28;20914;-61
2022/06/05 23:43:47;;;;;;;6.57;4.80;;;;;;;;;;8353179;28;20036;-61
2022/06/05 23:47:47;;;;;;;5.55;4.80;;;;;;;;;;8352612;28;20028;-61
2022/06/05 23:51:48;;;;;;;4.87;3.93;;;;;;;;;;8352277;28;20021;-61
2022/06/05 23:55:48;;;;;;;5.88;4.28;;;;;;;;;;8353911;28;20024;-61
2022/06/05 23:59:48;;;;;;;7.75;4.15;;;;;;;;;;8351919;28;20595;-61
